createdAt,value
2019-03-09T00:01:34.620Z,5.00
2019-03-09T00:04:03.421Z,5.00
2019-03-09T00:06:32.220Z,5.10
2019-03-09T00:09:01.008Z,5.10
2019-03-09T00:11:29.960Z,5.00
2019-03-09T00:13:58.892Z,5.20
2019-03-09T00:16:27.804Z,5.20
2019-03-09T00:18:56.655Z,5.10
2019-03-09T00:21:25.692Z,5.10
2019-03-09T00:24:14.196Z,5.20
2019-03-09T00:27:03.968Z,5.30
2019-03-09T00:29:43.754Z,5.30
2019-03-09T00:32:16.275Z,5.20
2019-03-09T00:34:45.496Z,5.20
2019-03-09T00:37:15.108Z,5.20
2019-03-09T00:39:43.903Z,5.20
2019-03-09T00:42:12.775Z,5.30
2019-03-09T00:44:41.556Z,5.40
2019-03-09T00:47:10.553Z,5.40
2019-03-09T00:49:39.296Z,5.30
2019-03-09T00:52:08.604Z,5.50
2019-03-09T00:54:38.187Z,5.50
2019-03-09T00:57:07.016Z,5.60
2019-03-09T00:59:37.389Z,5.60
2019-03-09T01:02:06.417Z,5.70
2019-03-09T01:04:36.032Z,5.70
2019-03-09T01:07:05.265Z,5.60
2019-03-09T01:09:34.184Z,5.40
2019-03-09T01:12:02.951Z,5.40
2019-03-09T01:14:31.796Z,5.60
2019-03-09T01:17:01.058Z,5.50
2019-03-09T01:19:30.245Z,5.50
2019-03-09T01:21:59.803Z,5.50
2019-03-09T01:24:28.633Z,5.70
2019-03-09T01:26:57.664Z,5.70
2019-03-09T01:29:26.564Z,5.70
2019-03-09T01:31:55.408Z,5.60
2019-03-09T01:34:24.295Z,5.60
2019-03-09T01:36:53.191Z,5.60
2019-03-09T01:39:22.526Z,5.60
2019-03-09T01:41:54.347Z,5.70
2019-03-09T01:44:23.409Z,5.60
2019-03-09T01:46:52.188Z,5.60
2019-03-09T01:49:21.311Z,5.60
2019-03-09T01:51:50.333Z,5.50
2019-03-09T01:54:19.052Z,5.40
2019-03-09T01:56:47.827Z,5.30
2019-03-09T01:59:16.605Z,5.30
2019-03-09T02:01:45.472Z,5.20
2019-03-09T02:04:14.264Z,5.20
2019-03-09T02:06:43.619Z,5.20
2019-03-09T02:09:12.452Z,5.20
2019-03-09T02:11:41.376Z,5.20
2019-03-09T02:14:10.671Z,5.20
2019-03-09T02:16:39.542Z,5.30
2019-03-09T02:19:08.668Z,5.30
2019-03-09T02:21:37.392Z,5.30
2019-03-09T02:24:06.400Z,5.20
2019-03-09T02:26:35.418Z,5.30
2019-03-09T02:29:04.308Z,5.40
2019-03-09T02:31:33.122Z,5.30
2019-03-09T02:34:01.965Z,5.20
2019-03-09T02:36:30.961Z,5.20
2019-03-09T02:39:05.793Z,5.20
2019-03-09T02:41:34.629Z,5.20
2019-03-09T02:44:03.452Z,5.10
2019-03-09T02:46:32.844Z,5.20
2019-03-09T02:49:01.977Z,5.20
2019-03-09T02:51:30.857Z,5.10
2019-03-09T02:53:59.722Z,5.20
2019-03-09T02:56:28.776Z,5.20
2019-03-09T02:58:58.014Z,5.10
2019-03-09T03:01:57.888Z,5.20
2019-03-09T03:04:26.698Z,5.20
2019-03-09T03:06:56.485Z,5.10
2019-03-09T03:09:25.400Z,5.10
2019-03-09T03:11:54.260Z,5.10
2019-03-09T03:14:23.172Z,5.10
2019-03-09T03:16:52.033Z,5.20
2019-03-09T03:19:21.027Z,5.20
2019-03-09T03:21:50.222Z,5.20
2019-03-09T03:24:19.107Z,5.20
2019-03-09T03:26:47.844Z,5.20
2019-03-09T03:29:16.936Z,5.10
2019-03-09T03:31:45.821Z,5.10
2019-03-09T03:34:14.870Z,5.00
2019-03-09T03:36:44.069Z,5.00
2019-03-09T03:39:13.346Z,5.00
2019-03-09T03:41:42.129Z,4.90
2019-03-09T03:44:11.212Z,4.90
2019-03-09T03:46:40.372Z,5.00
2019-03-09T03:49:09.721Z,5.10
2019-03-09T03:51:38.898Z,5.00
2019-03-09T03:54:07.705Z,5.10
2019-03-09T03:56:40.025Z,5.20
2019-03-09T03:59:09.136Z,5.10
2019-03-09T04:01:38.217Z,5.00
2019-03-09T04:04:07.046Z,5.10
2019-03-09T04:06:36.621Z,5.10
2019-03-09T04:09:07.440Z,5.10
2019-03-09T04:11:36.273Z,5.20
2019-03-09T04:14:05.409Z,5.20
2019-03-09T04:16:34.233Z,5.30
2019-03-09T04:19:03.335Z,5.30
2019-03-09T04:21:32.431Z,5.30
2019-03-09T04:24:01.269Z,5.20
2019-03-09T04:26:30.633Z,5.30
2019-03-09T04:28:59.625Z,5.40
2019-03-09T04:31:28.695Z,5.40
2019-03-09T04:33:57.803Z,5.50
2019-03-09T04:36:26.609Z,5.50
2019-03-09T04:38:55.396Z,5.50
2019-03-09T04:41:24.195Z,5.50
2019-03-09T04:43:52.965Z,5.50
2019-03-09T04:46:21.741Z,5.50
2019-03-09T04:48:50.795Z,5.50
2019-03-09T04:51:21.558Z,5.60
2019-03-09T04:53:51.680Z,5.70
2019-03-09T04:56:20.483Z,5.70
2019-03-09T04:58:50.421Z,5.80
2019-03-09T05:01:19.192Z,5.80
2019-03-09T05:04:07.286Z,6.00
2019-03-09T05:06:36.187Z,6.10
2019-03-09T05:09:46.224Z,6.20
2019-03-09T05:12:15.556Z,6.10
2019-03-09T05:14:44.404Z,6.20
2019-03-09T05:17:13.345Z,6.20
2019-03-09T05:19:42.227Z,6.40
2019-03-09T05:22:11.256Z,6.40
2019-03-09T05:24:40.043Z,6.40
2019-03-09T05:27:08.839Z,6.40
2019-03-09T05:29:37.787Z,6.40
2019-03-09T05:32:06.952Z,6.40
2019-03-09T05:34:35.680Z,6.40
2019-03-09T05:37:04.673Z,6.40
2019-03-09T05:39:33.659Z,6.40
2019-03-09T05:42:02.855Z,6.50
2019-03-09T05:44:31.780Z,6.50
2019-03-09T05:47:01.162Z,6.60
2019-03-09T05:49:30.035Z,6.60
2019-03-09T05:52:33.334Z,6.60
2019-03-09T05:55:17.254Z,6.60
2019-03-09T05:57:46.376Z,6.70
2019-03-09T06:00:16.721Z,6.70
2019-03-09T06:02:45.770Z,6.80
2019-03-09T06:05:35.688Z,6.70
2019-03-09T06:08:04.991Z,6.70
2019-03-09T06:10:33.873Z,6.80
2019-03-09T06:13:02.921Z,6.70
2019-03-09T06:15:31.764Z,6.60
2019-03-09T06:18:00.563Z,6.50
2019-03-09T06:20:29.474Z,6.50
2019-03-09T06:22:58.536Z,6.60
2019-03-09T06:25:27.337Z,6.60
2019-03-09T06:27:56.309Z,6.50
2019-03-09T06:30:26.426Z,6.50
2019-03-09T06:33:26.576Z,6.40
2019-03-09T06:36:29.549Z,6.40
2019-03-09T06:39:08.260Z,6.50
2019-03-09T06:41:41.635Z,6.50
2019-03-09T06:44:11.792Z,6.60
2019-03-09T06:46:40.820Z,6.60
2019-03-09T06:49:11.924Z,6.60
2019-03-09T06:51:41.136Z,6.60
2019-03-09T06:54:10.031Z,6.60
2019-03-09T06:56:39.052Z,6.60
2019-03-09T06:59:08.221Z,6.70
2019-03-09T07:01:37.051Z,6.80
2019-03-09T07:04:05.952Z,6.70
2019-03-09T07:06:36.221Z,6.70
2019-03-09T07:09:06.352Z,6.70
2019-03-09T07:11:35.250Z,6.70
2019-03-09T07:14:40.483Z,6.80
2019-03-09T07:17:09.928Z,6.80
2019-03-09T07:19:39.192Z,6.70
2019-03-09T07:22:08.604Z,6.80
2019-03-09T07:24:37.564Z,6.80
2019-03-09T07:27:06.382Z,6.80
2019-03-09T07:29:36.012Z,6.80
2019-03-09T07:32:06.561Z,6.80
2019-03-09T07:34:35.328Z,6.80
2019-03-09T07:37:05.188Z,6.90
2019-03-09T07:39:34.059Z,6.90
2019-03-09T07:42:02.968Z,6.70
2019-03-09T07:44:31.716Z,6.80
2019-03-09T07:47:00.846Z,6.80
2019-03-09T07:49:29.750Z,6.80
2019-03-09T07:51:58.767Z,6.80
2019-03-09T07:54:29.049Z,6.80
2019-03-09T07:56:57.792Z,6.90
2019-03-09T07:59:26.815Z,6.90
2019-03-09T08:01:55.764Z,6.90
2019-03-09T08:04:25.042Z,7.00
2019-03-09T08:06:54.067Z,7.00
2019-03-09T08:09:24.563Z,7.10
2019-03-09T08:11:54.037Z,7.10
2019-03-09T08:14:24.284Z,7.20
2019-03-09T08:16:53.181Z,7.20
2019-03-09T08:19:22.103Z,7.30
2019-03-09T08:21:51.572Z,7.30
2019-03-09T08:24:20.465Z,7.00
2019-03-09T08:26:50.186Z,6.70
2019-03-09T08:29:19.179Z,6.50
2019-03-09T08:31:48.901Z,6.60
2019-03-09T08:34:18.693Z,6.60
2019-03-09T08:36:47.706Z,6.70
2019-03-09T08:39:16.776Z,6.70
2019-03-09T08:41:45.672Z,6.90
2019-03-09T08:44:14.585Z,7.00
2019-03-09T08:46:44.218Z,6.80
2019-03-09T08:49:14.607Z,6.60
2019-03-09T08:51:43.498Z,6.50
2019-03-09T08:54:12.333Z,6.50
2019-03-09T08:56:41.389Z,6.40
2019-03-09T08:59:10.313Z,6.40
2019-03-09T09:01:40.610Z,6.60
2019-03-09T09:04:09.553Z,6.90
2019-03-09T09:06:38.570Z,7.10
2019-03-09T09:09:07.664Z,7.10
2019-03-09T09:11:38.053Z,7.10
2019-03-09T09:14:07.819Z,7.50
2019-03-09T09:16:36.601Z,7.90
2019-03-09T09:19:05.514Z,8.00
2019-03-09T09:21:38.384Z,7.90
2019-03-09T09:24:07.398Z,7.90
2019-03-09T09:26:36.341Z,8.20
2019-03-09T09:29:05.621Z,8.00
2019-03-09T09:31:36.285Z,8.00
2019-03-09T09:34:05.635Z,7.90
2019-03-09T09:36:35.297Z,8.00
2019-03-09T09:39:05.609Z,8.20
2019-03-09T09:41:35.137Z,8.20
2019-03-09T09:44:04.699Z,8.20
2019-03-09T09:46:33.764Z,7.90
2019-03-09T09:49:02.799Z,7.30
2019-03-09T09:51:31.643Z,7.20
2019-03-09T09:54:00.347Z,7.30
2019-03-09T09:56:30.073Z,7.40
2019-03-09T09:58:58.861Z,7.40
2019-03-09T10:01:27.692Z,7.50
2019-03-09T10:03:58.017Z,7.60
2019-03-09T10:06:29.116Z,7.60
2019-03-09T10:08:58.324Z,7.60
2019-03-09T10:11:27.241Z,7.70
2019-03-09T10:13:56.293Z,7.90
2019-03-09T10:16:25.027Z,7.90
2019-03-09T10:18:54.969Z,7.80
2019-03-09T10:21:24.769Z,7.70
2019-03-09T10:23:54.399Z,7.80
2019-03-09T10:26:26.484Z,7.80
2019-03-09T10:28:54.595Z,7.80
2019-03-09T10:31:24.131Z,8.10
2019-03-09T10:33:52.946Z,8.40
2019-03-09T10:36:22.118Z,8.60
2019-03-09T10:38:51.040Z,8.80
2019-03-09T10:41:19.781Z,8.80
2019-03-09T10:43:48.960Z,8.70
2019-03-09T10:46:17.825Z,8.50
2019-03-09T10:48:46.577Z,8.40
2019-03-09T10:51:15.518Z,8.30
2019-03-09T10:53:44.267Z,8.30
2019-03-09T10:56:13.253Z,8.30
2019-03-09T10:58:42.201Z,8.10
2019-03-09T11:01:11.045Z,8.10
2019-03-09T11:03:40.016Z,8.10
2019-03-09T11:06:09.152Z,8.10
2019-03-09T11:08:38.280Z,8.00
2019-03-09T11:11:07.164Z,7.90
2019-03-09T11:13:35.992Z,7.90
2019-03-09T11:16:04.779Z,7.90
2019-03-09T11:18:34.983Z,8.00
2019-03-09T11:21:03.923Z,8.30
2019-03-09T11:23:34.456Z,8.40
2019-03-09T11:26:04.984Z,8.40
2019-03-09T11:28:33.800Z,8.40
2019-03-09T11:31:02.681Z,8.40
2019-03-09T11:33:31.602Z,8.20
2019-03-09T11:36:00.611Z,8.20
2019-03-09T11:38:30.003Z,8.30
2019-03-09T11:41:00.711Z,8.90
2019-03-09T11:43:29.260Z,9.70
2019-03-09T11:45:59.036Z,9.70
2019-03-09T11:48:29.569Z,9.80
2019-03-09T11:50:59.928Z,9.50
2019-03-09T11:53:29.649Z,9.60
2019-03-09T11:55:58.819Z,9.50
2019-03-09T11:58:27.698Z,9.10
2019-03-09T12:00:57.092Z,8.70
2019-03-09T12:03:26.196Z,8.50
2019-03-09T12:05:54.968Z,8.40
2019-03-09T12:08:23.844Z,8.40
2019-03-09T12:10:52.832Z,8.50
2019-03-09T12:13:21.552Z,8.40
2019-03-09T12:15:50.321Z,8.50
2019-03-09T12:18:19.052Z,8.90
2019-03-09T12:20:47.921Z,9.20
2019-03-09T12:23:23.343Z,9.10
2019-03-09T12:25:52.457Z,9.00
2019-03-09T12:28:24.396Z,8.50
2019-03-09T12:30:53.413Z,8.40
2019-03-09T12:33:22.508Z,8.40
2019-03-09T12:35:51.444Z,8.40
2019-03-09T12:38:20.552Z,8.30
2019-03-09T12:40:52.280Z,8.30
2019-03-09T12:43:21.144Z,8.40
2019-03-09T12:45:50.569Z,8.20
2019-03-09T12:48:38.629Z,8.20
2019-03-09T12:51:07.570Z,8.30
2019-03-09T12:53:36.398Z,8.30
2019-03-09T12:56:05.719Z,8.40
2019-03-09T12:58:34.494Z,8.30
2019-03-09T13:01:03.460Z,8.30
2019-03-09T13:03:32.377Z,8.50
2019-03-09T13:06:01.544Z,8.50
2019-03-09T13:08:31.428Z,8.50
2019-03-09T13:11:00.306Z,8.50
2019-03-09T13:13:29.278Z,8.60
2019-03-09T13:15:58.320Z,8.60
2019-03-09T13:18:27.436Z,8.60
2019-03-09T13:20:56.414Z,8.70
2019-03-09T13:23:25.716Z,8.60
2019-03-09T13:25:54.520Z,8.70
2019-03-09T13:28:23.521Z,8.90
2019-03-09T13:30:52.393Z,8.90
2019-03-09T13:33:21.150Z,9.10
2019-03-09T13:35:50.452Z,9.00
2019-03-09T13:38:19.235Z,8.80
2019-03-09T13:40:48.248Z,9.10
2019-03-09T13:43:17.440Z,9.00
2019-03-09T13:45:46.732Z,9.10
2019-03-09T13:48:15.869Z,9.10
2019-03-09T13:50:44.625Z,9.10
2019-03-09T13:53:13.589Z,9.00
2019-03-09T13:55:42.581Z,9.00
2019-03-09T13:58:11.320Z,9.10
2019-03-09T14:00:41.030Z,9.10
2019-03-09T14:03:11.171Z,9.20
2019-03-09T14:05:40.338Z,9.20
2019-03-09T14:08:09.224Z,9.30
2019-03-09T14:10:38.496Z,9.30
2019-03-09T14:13:07.449Z,9.30
2019-03-09T14:15:36.243Z,9.10
2019-03-09T14:18:05.356Z,9.00
2019-03-09T14:20:34.561Z,9.00
2019-03-09T14:23:04.188Z,8.90
2019-03-09T14:25:32.947Z,8.80
2019-03-09T14:28:01.724Z,8.60
2019-03-09T14:30:31.706Z,8.40
2019-03-09T14:33:00.476Z,8.30
2019-03-09T14:35:29.284Z,8.20
2019-03-09T14:37:58.156Z,8.20
2019-03-09T14:40:27.429Z,8.30
2019-03-09T14:42:56.367Z,8.30
2019-03-09T14:45:25.297Z,8.40
2019-03-09T14:47:54.528Z,8.50
2019-03-09T14:50:23.645Z,8.50
2019-03-09T14:52:53.236Z,8.50
2019-03-09T14:55:22.070Z,8.40
2019-03-09T14:57:51.101Z,8.30
2019-03-09T15:00:20.933Z,8.40
2019-03-09T15:02:50.023Z,8.40
2019-03-09T15:05:18.856Z,8.50
2019-03-09T15:07:47.892Z,8.60
2019-03-09T15:10:16.811Z,8.70
2019-03-09T15:12:45.971Z,8.70
2019-03-09T15:15:15.425Z,8.80
2019-03-09T15:17:44.757Z,8.80
2019-03-09T15:20:14.073Z,8.90
2019-03-09T15:22:43.467Z,9.10
2019-03-09T15:25:12.596Z,9.10
2019-03-09T15:27:41.331Z,8.80
2019-03-09T15:30:12.544Z,8.80
2019-03-09T15:32:41.364Z,8.70
2019-03-09T15:35:10.473Z,8.40
2019-03-09T15:37:39.607Z,8.30
2019-03-09T15:40:09.092Z,8.40
2019-03-09T15:42:38.130Z,8.50
2019-03-09T15:45:07.953Z,8.60
2019-03-09T15:47:36.836Z,8.60
2019-03-09T15:50:06.200Z,8.60
2019-03-09T15:52:35.313Z,8.60
2019-03-09T15:55:05.375Z,8.60
2019-03-09T15:57:34.377Z,8.70
2019-03-09T16:00:04.274Z,8.60
2019-03-09T16:02:33.094Z,8.60
2019-03-09T16:05:02.000Z,8.70
2019-03-09T16:07:30.749Z,8.70
2019-03-09T16:10:00.314Z,8.70
2019-03-09T16:12:30.661Z,8.60
2019-03-09T16:14:59.481Z,8.50
2019-03-09T16:17:28.557Z,8.30
2019-03-09T16:19:57.366Z,8.10
2019-03-09T16:22:26.189Z,8.00
2019-03-09T16:24:54.940Z,7.40
2019-03-09T16:27:23.860Z,7.10
2019-03-09T16:29:52.949Z,6.90
2019-03-09T16:32:21.936Z,6.70
2019-03-09T16:34:52.891Z,6.60
2019-03-09T16:37:21.604Z,6.50
2019-03-09T16:39:50.740Z,6.40
2019-03-09T16:42:19.754Z,6.40
2019-03-09T16:44:48.587Z,6.30
2019-03-09T16:47:17.411Z,6.30
2019-03-09T16:49:46.438Z,6.20
2019-03-09T16:52:15.237Z,6.20
2019-03-09T16:54:43.941Z,6.20
2019-03-09T16:57:13.201Z,6.10
2019-03-09T16:59:44.237Z,6.20
2019-03-09T17:02:13.439Z,6.10
2019-03-09T17:04:42.219Z,6.20
2019-03-09T17:07:10.980Z,6.20
2019-03-09T17:09:40.176Z,6.10
2019-03-09T17:12:11.208Z,6.10
2019-03-09T17:14:40.013Z,6.10
2019-03-09T17:17:09.191Z,6.10
2019-03-09T17:19:38.059Z,6.00
2019-03-09T17:22:07.040Z,5.90
2019-03-09T17:24:36.967Z,5.90
2019-03-09T17:27:05.969Z,5.70
2019-03-09T17:29:35.550Z,5.60
2019-03-09T17:32:04.343Z,5.60
2019-03-09T17:34:33.288Z,5.60
2019-03-09T17:37:02.703Z,5.60
2019-03-09T17:39:31.580Z,5.60
2019-03-09T17:42:00.469Z,5.60
2019-03-09T17:44:29.302Z,5.60
2019-03-09T17:46:58.456Z,5.50
2019-03-09T17:49:27.350Z,5.50
2019-03-09T17:51:56.087Z,5.40
2019-03-09T17:54:24.829Z,5.30
2019-03-09T17:56:53.787Z,5.30
2019-03-09T17:59:22.530Z,5.10
2019-03-09T18:01:51.382Z,5.00
2019-03-09T18:04:20.464Z,4.90
2019-03-09T18:06:49.808Z,4.70
2019-03-09T18:09:18.613Z,4.60
2019-03-09T18:11:47.372Z,4.60
2019-03-09T18:14:16.155Z,4.50
2019-03-09T18:16:52.492Z,4.30
2019-03-09T18:19:15.968Z,4.30
2019-03-09T18:21:44.794Z,4.20
2019-03-09T18:24:13.573Z,4.20
2019-03-09T18:26:42.793Z,4.10
2019-03-09T18:29:12.376Z,4.20
2019-03-09T18:31:41.251Z,4.20
2019-03-09T18:34:10.221Z,4.10
2019-03-09T18:36:39.055Z,4.00
2019-03-09T18:39:07.849Z,4.00
2019-03-09T18:41:36.722Z,4.00
2019-03-09T18:44:05.515Z,4.00
2019-03-09T18:46:34.856Z,4.10
2019-03-09T18:49:03.833Z,4.10
2019-03-09T18:51:32.566Z,4.10
2019-03-09T18:54:01.427Z,4.10
2019-03-09T18:56:30.504Z,4.10
2019-03-09T18:58:59.229Z,4.10
2019-03-09T19:01:28.320Z,4.20
2019-03-09T19:03:57.160Z,4.20
2019-03-09T19:06:26.076Z,4.20
2019-03-09T19:08:55.047Z,4.20
2019-03-09T19:11:24.855Z,4.30
2019-03-09T19:13:54.014Z,4.40
2019-03-09T19:16:22.735Z,4.40
2019-03-09T19:18:51.624Z,4.40
2019-03-09T19:21:20.471Z,4.70
2019-03-09T19:23:49.412Z,4.70
2019-03-09T19:26:18.227Z,4.70
2019-03-09T19:28:47.100Z,4.80
2019-03-09T19:31:20.629Z,4.80
2019-03-09T19:33:49.700Z,4.70
2019-03-09T19:36:18.684Z,4.70
2019-03-09T19:38:47.448Z,4.60
2019-03-09T19:41:16.244Z,4.70
2019-03-09T19:43:45.280Z,4.70
2019-03-09T19:46:14.037Z,4.70
2019-03-09T19:48:42.798Z,4.60
2019-03-09T19:51:11.613Z,4.60
2019-03-09T19:53:40.402Z,4.20
2019-03-09T19:56:09.212Z,4.70
2019-03-09T19:58:39.149Z,4.90
2019-03-09T20:01:08.068Z,5.00
2019-03-09T20:03:37.089Z,5.00
2019-03-09T20:06:05.919Z,5.10
2019-03-09T20:08:34.760Z,5.10
2019-03-09T20:11:04.761Z,5.20
2019-03-09T20:13:34.017Z,5.30
2019-03-09T20:16:02.993Z,5.40
2019-03-09T20:18:31.776Z,5.40
2019-03-09T20:21:01.777Z,5.50
2019-03-09T20:23:30.611Z,5.50
2019-03-09T20:25:59.348Z,5.50
2019-03-09T20:28:29.160Z,5.50
2019-03-09T20:30:58.050Z,5.40
2019-03-09T20:33:26.859Z,5.30
2019-03-09T20:35:55.670Z,5.20
2019-03-09T20:38:24.628Z,5.30
2019-03-09T20:40:53.421Z,5.10
2019-03-09T20:43:22.792Z,5.10
2019-03-09T20:45:52.517Z,5.20
2019-03-09T20:48:21.541Z,5.20
2019-03-09T20:50:50.573Z,5.30
2019-03-09T20:53:19.504Z,5.20
2019-03-09T20:55:48.656Z,5.10
2019-03-09T20:58:17.509Z,5.10
2019-03-09T21:00:46.453Z,5.20
2019-03-09T21:03:15.430Z,5.20
2019-03-09T21:05:44.504Z,5.20
2019-03-09T21:08:13.557Z,5.20
2019-03-09T21:10:42.260Z,5.10
2019-03-09T21:13:11.272Z,5.20
2019-03-09T21:15:40.162Z,5.20
2019-03-09T21:18:09.159Z,5.20
2019-03-09T21:20:38.312Z,5.30
2019-03-09T21:23:07.165Z,5.30
2019-03-09T21:25:35.949Z,5.30
2019-03-09T21:28:05.183Z,5.10
2019-03-09T21:30:34.260Z,5.00
2019-03-09T21:33:03.562Z,5.00
2019-03-09T21:35:33.224Z,4.70
2019-03-09T21:38:02.426Z,4.60
2019-03-09T21:40:31.438Z,4.50
2019-03-09T21:43:00.216Z,4.40
2019-03-09T21:45:29.492Z,4.30
2019-03-09T21:47:58.626Z,4.30
2019-03-09T21:50:27.538Z,4.30
2019-03-09T21:52:56.283Z,4.10
2019-03-09T21:55:25.156Z,4.10
2019-03-09T21:57:54.024Z,4.00
2019-03-09T22:00:23.139Z,4.10
2019-03-09T22:02:51.948Z,4.10
2019-03-09T22:05:20.759Z,4.30
2019-03-09T22:07:49.596Z,4.40
2019-03-09T22:10:18.368Z,4.50
2019-03-09T22:13:06.325Z,4.50
2019-03-09T22:15:35.201Z,4.60
2019-03-09T22:18:04.476Z,4.70
2019-03-09T22:20:33.374Z,4.60
2019-03-09T22:23:02.328Z,4.80
2019-03-09T22:25:31.681Z,5.00
2019-03-09T22:28:00.502Z,5.00
2019-03-09T22:30:29.245Z,5.10
2019-03-09T22:32:58.276Z,5.20
2019-03-09T22:35:27.194Z,5.20
2019-03-09T22:37:56.367Z,5.20
2019-03-09T22:40:25.151Z,5.20
2019-03-09T22:42:54.733Z,5.20
2019-03-09T22:45:23.457Z,5.10
2019-03-09T22:47:52.280Z,5.10
2019-03-09T22:50:21.148Z,5.00
2019-03-09T22:52:50.239Z,5.00
2019-03-09T22:55:18.956Z,5.00
2019-03-09T22:57:48.107Z,4.90
2019-03-09T23:00:18.018Z,4.90
2019-03-09T23:02:46.900Z,4.90
2019-03-09T23:05:16.135Z,4.90
2019-03-09T23:07:45.031Z,5.00
2019-03-09T23:10:15.243Z,5.00
2019-03-09T23:12:44.482Z,5.10
2019-03-09T23:15:13.972Z,5.10
2019-03-09T23:17:43.539Z,5.10
2019-03-09T23:20:13.237Z,5.10
2019-03-09T23:22:42.155Z,5.10
2019-03-09T23:25:11.295Z,5.20
2019-03-09T23:27:40.147Z,5.30
2019-03-09T23:30:12.681Z,5.40
2019-03-09T23:32:41.577Z,5.40
2019-03-09T23:35:11.580Z,5.50
2019-03-09T23:37:40.534Z,5.50
2019-03-09T23:40:09.548Z,5.50
2019-03-09T23:42:38.979Z,5.40
2019-03-09T23:45:09.364Z,5.50
2019-03-09T23:47:38.175Z,5.50
2019-03-09T23:50:08.420Z,5.40
2019-03-09T23:52:37.311Z,5.40
2019-03-09T23:55:06.420Z,5.50
2019-03-09T23:57:36.323Z,5.40
